Oberlin, Louisiana
Current Conditions -  °F | °C
As of 11:15 AM on Thursday 27 Nov 2014 (Local Time) from KACP Reporting Station
Clear Clear  
Wind Chill: 58°   Ceiling: Unl
Heat Index: 58°   Visibility: 10mi
Dew Point: 29°   Wind: 8mph
Humidity: 34%   Direction: 10°N
Pressure: 30.48"   Gusts: NA
Location:  30.62°N, 92.76°W
Report Text: KACP 271715Z AUTO 01007KT 10SM CLR 14/M02 A3048 RMK AO2 T01421016
Loading
Personal Weather Stations






























Interactive Weather Map New forecast layout! Learn more

10-Day Weather Forecast

Advertisements
Track Severe Weather on mobile